Data for 08/24/2005

Time Sea-Level Adjusted Pressure Absolute Pressure Temperature Relative Humidity Dew Point   
(mb) (inHg) (mb) (inHg) (C) (F) (%) (C) (F)
00:05 1013 29.91 843 24.89 14 57.2 60 6.3 43.4
00:10 1013 29.91 843 24.89 13.9 57.1 60 6.4 43.6
00:15 1014 29.94 843 24.89 13.7 56.6 62 6.5 43.7
00:20 1014 29.94 843 24.89 13.6 56.4 61 6.3 43.3
00:25 1014 29.94 843 24.89 13.4 56.2 61 6.2 43.2
00:30 1014 29.94 843 24.89 13.3 55.9 61 6.1 42.9
00:35 1014 29.94 843 24.89 13.2 55.7 61 6 42.7
00:40 1014 29.94 843 24.89 13 55.4 61 5.9 42.5
00:45 1014 29.94 843 24.89 13 55.4 62 6 42.8
00:50 1014 29.94 843 24.89 13 55.4 62 6 42.8
00:55 1014 29.94 843 24.89 12.9 55.2 63 6 42.8
01:00 1014 29.94 843 24.89 12.8 55 63 6.1 42.9
01:05 1014 29.94 843 24.89 12.8 55 64 6.2 43.1
01:10 1014 29.94 843 24.89 12.6 54.6 65 6.2 43.2
01:15 1014 29.94 843 24.89 12.4 54.3 66 6.2 43.1
01:20 1014 29.94 843 24.89 12.2 53.9 66 6.1 43
01:25 1014 29.94 843 24.89 12 53.6 66 6 42.7
01:30 1014 29.94 843 24.89 11.9 53.3 66 5.8 42.4
01:35 1014 29.94 843 24.89 11.8 53.2 66 5.7 42.2
01:40 1014 29.94 843 24.89 11.8 53.2 65 5.6 42
01:45 1014 29.94 843 24.89 11.9 53.4 65 5.6 42.1
01:50 1014 29.94 843 24.89 11.8 53.3 66 5.6 42.1
01:55 1014 29.94 843 24.89 11.9 53.4 65 5.5 41.9
02:00 1014 29.94 843 24.89 11.8 53.3 66 5.7 42.3
02:05 1014 29.94 843 24.89 11.5 52.7 67 5.7 42.3
02:10 1014 29.94 843 24.89 11.4 52.6 67 5.6 42
02:15 1014 29.94 843 24.89 11.4 52.4 67 5.5 41.9
02:20 1014 29.94 843 24.89 11.3 52.3 66 5.2 41.3
02:25 1014 29.94 843 24.89 11.4 52.5 66 5.3 41.6
02:30 1014 29.94 843 24.89 11.2 52.2 67 5.4 41.6
02:35 1014 29.94 843 24.89 11.1 52 68 5.4 41.7
02:40 1014 29.94 843 24.89 11 51.9 68 5.4 41.7
02:45 1014 29.94 843 24.89 10.9 51.7 67 5.2 41.4
02:50 1014 29.94 843 24.89 11 51.7 68 5.3 41.5
02:55 1014 29.94 843 24.89 11 51.8 68 5.3 41.5
03:00 1014 29.94 843 24.89 10.9 51.7 68 5.3 41.5
03:05 1014 29.94 844 24.92 11 51.7 68 5.3 41.5
03:10 1014 29.94 844 24.92 11.1 51.9 67 5.2 41.4
03:15 1014 29.94 843 24.89 11.2 52.1 67 5.3 41.6
03:20 1014 29.94 843 24.89 11 51.8 68 5.4 41.7
03:25 1014 29.94 843 24.89 10.9 51.7 69 5.5 41.9
03:30 1014 29.94 843 24.89 11 51.8 68 5.4 41.8
03:35 1014 29.94 843 24.89 11 51.7 68 5.4 41.7
03:40 1014 29.94 843 24.89 11.1 52 66 5.1 41.2
03:45 1014 29.94 843 24.89 11.1 51.9 67 5.3 41.5
03:50 1014 29.94 843 24.89 11 51.7 68 5.3 41.5
03:55 1014 29.94 843 24.89 10.9 51.7 68 5.3 41.5
04:00 1014 29.94 843 24.89 11 51.7 68 5.2 41.4
04:05 1014 29.94 843 24.89 11.2 52.2 64 4.7 40.5
04:10 1014 29.94 843 24.89 11.4 52.4 64 4.9 40.8
04:15 1014 29.94 843 24.89 11.4 52.5 64 4.8 40.7
04:20 1014 29.94 843 24.89 11.5 52.6 63 4.8 40.7
04:25 1014 29.94 843 24.89 11.5 52.6 63 4.8 40.6
04:30 1014 29.94 843 24.89 11.5 52.6 64 4.9 40.7
04:35 1014 29.94 843 24.89 11.5 52.7 64 4.9 40.9
04:40 1014 29.94 843 24.89 11.4 52.4 64 4.8 40.7
04:45 1014 29.94 843 24.89 11.4 52.4 64 4.8 40.7
04:50 1014 29.94 843 24.89 11.5 52.7 64 4.9 40.8
04:55 1014 29.94 843 24.89 11.5 52.6 65 5.1 41.2
05:00 1014 29.94 843 24.89 11.4 52.6 65 5.1 41.1
05:05 1014 29.94 843 24.89 11.5 52.7 64 5.1 41.1
05:10 1014 29.94 843 24.89 11.5 52.7 65 5.2 41.3
05:15 1014 29.94 843 24.89 11.5 52.8 65 5.3 41.5
05:20 1014 29.94 843 24.89 11.3 52.3 66 5.3 41.5
05:25 1014 29.94 843 24.89 11.3 52.4 66 5.3 41.5
05:30 1014 29.94 843 24.89 11.3 52.3 66 5.3 41.5
05:35 1014 29.94 843 24.89 11.3 52.3 66 5.3 41.5
05:40 1014 29.94 843 24.89 11.4 52.4 66 5.3 41.6
05:45 1014 29.94 843 24.89 11.4 52.5 66 5.3 41.6
05:50 1014 29.94 843 24.89 11.2 52.1 68 5.5 41.9
05:55 1014 29.94 843 24.89 10.8 51.4 70 5.4 41.8
06:00 1014 29.94 843 24.89 10.6 51.2 69 5.2 41.4
06:05 1014 29.94 843 24.89 10.9 51.5 69 5.4 41.7
06:10 1014 29.94 843 24.89 10.9 51.6 69 5.5 41.9
06:15 1014 29.94 843 24.89 10.8 51.5 69 5.4 41.7
06:20 1014 29.94 843 24.89 10.7 51.3 70 5.5 41.9
06:25 1014 29.94 844 24.92 10.5 51 71 5.5 42
06:30 1014 29.94 844 24.92 10.5 50.9 70 5.3 41.5
06:35 1014 29.94 844 24.92 10.5 50.9 71 5.4 41.8
06:40 1014 29.94 844 24.92 10.5 50.8 71 5.5 41.8
06:45 1014 29.94 844 24.92 10.4 50.8 71 5.4 41.7
06:50 1014 29.94 844 24.92 10.5 50.8 72 5.6 42
06:55 1014 29.94 844 24.92 10.4 50.6 72 5.6 42.1
07:00 1014 29.94 844 24.92 10.2 50.3 72 5.4 41.7
07:05 1014 29.94 844 24.92 10.2 50.4 72 5.5 41.8
07:10 1015 29.97 844 24.92 10.2 50.3 71 5.2 41.3
07:15 1014 29.94 844 24.92 10.3 50.5 73 5.6 42.1
07:20 1014 29.94 844 24.92 10.5 50.9 71 5.5 41.8
07:25 1015 29.97 844 24.92 10.7 51.2 71 5.6 42
07:30 1015 29.97 844 24.92 10.9 51.6 69 5.4 41.6
07:35 1015 29.97 844 24.92 11.1 52 67 5.2 41.4
07:40 1015 29.97 844 24.92 11.1 51.9 67 5.3 41.5
07:45 1015 29.97 844 24.92 11 51.8 68 5.3 41.5
07:50 1015 29.97 844 24.92 10.9 51.6 68 5.2 41.3
07:55 1015 29.97 844 24.92 11.1 52.1 66 5.1 41.1
08:00 1015 29.97 844 24.92 11.2 52.2 67 5.2 41.4
08:05 1015 29.97 844 24.92 10.9 51.7 66 4.8 40.6
08:10 1015 29.97 844 24.92 10.7 51.3 68 5 41
08:15 1015 29.97 844 24.92 10.6 51 68 4.9 40.8
08:20 1015 29.97 844 24.92 10.7 51.2 65 4.5 40.1
08:25 1015 29.97 844 24.92 11.4 52.5 61 4.1 39.4
08:30 1015 29.97 844 24.92 12 53.6 56 3.6 38.4
08:35 1015 29.97 844 24.92 11.9 53.5 57 3.8 38.8
08:40 1015 29.97 844 24.92 12.5 54.5 54 3.5 38.4
08:45 1015 29.97 844 24.92 13.3 56 52 3.6 38.5
08:50 1015 29.97 844 24.92 13.8 56.8 51 3.8 38.9
08:55 1015 29.97 844 24.92 14.3 57.8 50 4.1 39.4
09:00 1015 29.97 844 24.92 14.6 58.3 49 4 39.3
09:05 1015 29.97 844 24.92 14.8 58.6 47 3.6 38.5
09:10 1015 29.97 844 24.92 14.9 58.9 47 3.9 39.1
09:15 1015 29.97 844 24.92 15.1 59.1 47 3.8 38.9
09:20 1015 29.97 844 24.92 15 59 48 4.2 39.6
09:25 1015 29.97 844 24.92 15.5 59.8 46 4 39.3
09:30 1015 29.97 844 24.92 15.5 59.8 44 3.5 38.3
09:35 1015 29.97 844 24.92 15.4 59.7 41 2.3 36.2
09:40 1015 29.97 844 24.92 15.8 60.5 42 3 37.4
09:45 1015 29.97 844 24.92 15.6 60.1 38 1.3 34.4
09:50 1015 29.97 844 24.92 15.5 59.8 40 2.1 35.8
09:55 1015 29.97 844 24.92 15.5 59.9 38 1.5 34.7
10:00 1015 29.97 844 24.92 15.3 59.6 39 1.5 34.8
10:05 1015 29.97 844 24.92 15.4 59.7 37 0.7 33.3
10:10 1015 29.97 845 24.95 15.6 60.1 36 0.6 33.1
10:15 1015 29.97 845 24.95 15.7 60.2 39 1.8 35.2
10:20 1015 29.97 845 24.95 15.8 60.5 36 0.9 33.7
10:25 1015 29.97 845 24.95 15.5 59.9 37 1.2 34.1
10:30 1015 29.97 845 24.95 15.7 60.3 34 -0.1 31.8
10:35 1015 29.97 845 24.95 15.7 60.2 34 0 32
10:40 1015 29.97 845 24.95 16.1 61.1 35 0.7 33.2
10:45 1015 29.97 845 24.95 16.3 61.3 34 0.4 32.8
10:50 1015 29.97 845 24.95 16.2 61.1 34 0.4 32.7
10:55 1015 29.97 845 24.95 16.4 61.5 32 -0.4 31.3
11:00 1015 29.97 845 24.95 17 62.5 30 -0.8 30.5
11:05 1015 29.97 845 24.95 16.7 62.1 30 -1 30.2
11:10 1015 29.97 845 24.95 16.8 62.2 31 -0.5 31.1
11:15 1015 29.97 845 24.95 16.8 62.3 30 -0.6 30.9
11:20 1015 29.97 845 24.95 17 62.7 30 -0.4 31.3
11:25 1016 30 845 24.95 17.4 63.4 28 -1.3 29.6
11:30 1016 30 845 24.95 17.3 63.1 28 -1.1 30
11:35 1016 30 845 24.95 17.1 62.8 28 -1.2 29.8
11:40 1016 30 845 24.95 17.3 63.1 28 -1.2 29.8
11:45 1016 30 845 24.95 17.7 63.9 27 -1.3 29.7
11:50 1016 30 845 24.95 17.3 63.2 28 -1.2 29.8
11:55 1016 30 845 24.95 17.5 63.6 27 -1.4 29.5
12:00 1016 30 845 24.95 17.7 63.8 28 -0.8 30.6
12:05 1016 30 845 24.95 18.1 64.6 28 -0.6 30.9
12:10 1016 30 845 24.95 18.2 64.7 28 -0.7 30.7
12:15 1016 30 845 24.95 18.2 64.7 27 -1.1 30
12:20 1016 30 845 24.95 18 64.5 27 -1 30.3
12:25 1016 30 845 24.95 18.8 65.9 25 -1.3 29.6
12:30 1016 30 845 24.95 18.7 65.6 26 -1.3 29.7
12:35 1016 30 845 24.95 18.4 65.2 26 -1.5 29.4
12:40 1016 30 845 24.95 18.5 65.4 27 -0.8 30.5
12:45 1016 30 845 24.95 18.3 64.9 27 -1.1 30.1
12:50 1016 30 845 24.95 18 64.3 27 -1.4 29.5
12:55 1016 30 845 24.95 18.4 65.1 26 -1.2 29.8
13:00 1016 30 845 24.95 18.6 65.5 26 -1.2 29.8
13:05 1016 30 845 24.95 18.8 65.9 25 -1.6 29.1
13:10 1016 30 845 24.95 18.6 65.5 25 -1.5 29.3
13:15 1016 30 845 24.95 18.7 65.6 25 -1.7 28.9
13:20 1016 30 845 24.95 19.1 66.4 25 -1.3 29.7
13:25 1016 30 845 24.95 18.8 65.9 26 -1 30.2
13:30 1016 30 845 24.95 19.1 66.4 24 -2 28.3
13:35 1016 30 845 24.95 19.1 66.5 25 -1.4 29.6
13:40 1016 30 845 24.95 19.5 67 24 -1.2 29.8
13:45 1016 30 845 24.95 19.4 66.9 23 -1.9 28.5
13:50 1016 30 845 24.95 19.4 67 24 -1.7 28.9
13:55 1016 30 845 24.95 19.4 67 23 -2 28.5
14:00 1016 30 845 24.95 19.8 67.6 23 -1.7 28.9
14:05 1016 30 845 24.95 19.8 67.6 24 -1.4 29.5
14:10 1016 30 845 24.95 19.8 67.6 23 -1.9 28.6
14:15 1016 30 845 24.95 20.1 68.3 23 -1.5 29.3
14:20 1016 30 845 24.95 20.1 68.3 23 -1.5 29.4
14:25 1016 30 845 24.95 20.1 68.3 22 -2.1 28.2
14:30 1016 30 845 24.95 20 67.9 22 -2.4 27.7
14:35 1016 30 845 24.95 19.8 67.7 22 -2.5 27.4
14:40 1016 30 845 24.95 20.1 68.1 22 -2.2 28
14:45 1016 30 845 24.95 19.8 67.7 22 -2.4 27.7
14:50 1016 30 845 24.95 19.9 67.7 24 -1.1 30
14:55 1016 30 845 24.95 19.8 67.7 21 -3.1 26.5
15:00 1016 30 845 24.95 20.3 68.5 22 -1.9 28.6
15:05 1016 30 845 24.95 20.9 69.6 21 -1.9 28.6
15:10 1016 30 845 24.95 20.7 69.3 21 -2.3 27.9
15:15 1016 30 845 24.95 20.4 68.8 20 -3 26.6
15:20 1016 30 845 24.95 20.2 68.3 20 -3.3 26.1
15:25 1016 30 845 24.95 20.3 68.6 20 -3.1 26.4
15:30 1016 30 845 24.95 20.3 68.6 21 -2.7 27.2
15:35 1016 30 845 24.95 20.8 69.4 20 -2.7 27.2
15:40 1016 30 845 24.95 20.7 69.2 20 -2.9 26.9
15:45 1016 30 845 24.95 20.9 69.5 21 -2.3 27.9
15:50 1016 30 845 24.95 20.8 69.4 20 -2.6 27.3
15:55 1016 30 845 24.95 21.1 69.9 18 -3.8 25.1
16:00 1016 30 845 24.95 21 69.8 20 -3 26.6
16:05 1016 30 845 24.95 20.6 69.1 20 -2.8 27
16:10 1016 30 845 24.95 20.9 69.6 20 -2.7 27.1
16:15 1016 30 845 24.95 20.8 69.4 20 -2.7 27.2
16:20 1016 30 845 24.95 20.3 68.6 20 -3.3 26.1
16:25 1016 30 845 24.95 20.3 68.5 20 -3 26.6
16:30 1016 30 845 24.95 20.6 69.1 20 -2.8 26.9
16:35 1016 30 845 24.95 20.4 68.8 21 -2.5 27.5
16:40 1016 30 845 24.95 20.4 68.7 20 -3 26.5
16:45 1016 30 845 24.95 20.6 69.1 20 -3.1 26.4
16:50 1016 30 845 24.95 20.5 68.8 21 -2.4 27.7
16:55 1016 30 845 24.95 20.6 69.2 21 -2.4 27.7
17:00 1016 30 845 24.95 20.4 68.8 22 -2 28.5
17:05 1016 30 845 24.95 20.5 68.9 21 -2.2 28.1
17:10 1016 30 845 24.95 20.3 68.6 21 -2.3 27.9
17:15 1016 30 845 24.95 20.2 68.3 23 -1.7 28.9
17:20 1016 30 846 24.98 20.2 68.3 22 -2.1 28.2
17:25 1016 30 846 24.98 20.1 68.2 22 -1.8 28.7
17:30 1016 30 846 24.98 20 68 22 -2 28.5
17:35 1016 30 846 24.98 19.8 67.6 22 -2.1 28.2
17:40 1016 30 846 24.98 19.5 67 23 -2.1 28.3
17:45 1017 30.03 846 24.98 19.4 67 23 -2.1 28.2
17:50 1017 30.03 846 24.98 19.1 66.4 23 -2.3 27.9
17:55 1017 30.03 846 24.98 19.4 67 23 -2.2 28.1
18:00 1017 30.03 846 24.98 19.5 67.1 23 -1.8 28.7
18:05 1017 30.03 846 24.98 19 66.3 25 -1.5 29.3
18:10 1017 30.03 846 24.98 18.6 65.5 25 -1.9 28.7
18:15 1017 30.03 846 24.98 19.1 66.5 24 -1.8 28.8
18:20 1017 30.03 846 24.98 19.1 66.4 24 -2 28.4
18:25 1017 30.03 846 24.98 19 66.2 24 -1.8 28.8
18:30 1017 30.03 846 24.98 18.9 66 25 -1.7 28.9
18:35 1017 30.03 846 24.98 18.6 65.4 25 -1.9 28.6
18:40 1017 30.03 846 24.98 18.2 64.7 25 -2 28.4
18:45 1017 30.03 846 24.98 18.1 64.7 26 -1.3 29.7
18:50 1017 30.03 846 24.98 18.2 64.7 26 -1.3 29.6
18:55 1017 30.03 846 24.98 18.1 64.6 26 -1.7 28.9
19:00 1017 30.03 846 24.98 18 64.5 26 -1.5 29.4
19:05 1017 30.03 846 24.98 18 64.3 27 -1.4 29.5
19:10 1017 30.03 846 24.98 17.9 64.2 27 -1.3 29.7
19:15 1017 30.03 846 24.98 18 64.4 26 -1.6 29.2
19:20 1017 30.03 846 24.98 17.9 64.2 27 -1.4 29.4
19:25 1017 30.03 847 25.01 17.8 64.1 27 -1.2 29.9
19:30 1017 30.03 847 25.01 17.8 64.1 27 -1.1 30.1
19:35 1017 30.03 847 25.01 17.7 63.8 28 -1 30.1
19:40 1017 30.03 847 25.01 17.6 63.6 28 -0.8 30.5
19:45 1017 30.03 847 25.01 17.4 63.4 28 -1.2 29.9
19:50 1017 30.03 847 25.01 17.3 63.2 28 -1 30.2
19:55 1018 30.06 847 25.01 17.1 62.9 29 -0.9 30.4
20:00 1018 30.06 847 25.01 16.9 62.4 30 -0.8 30.6
20:05 1018 30.06 847 25.01 16.8 62.2 30 -0.8 30.5
20:10 1018 30.06 847 25.01 16.6 61.8 30 -0.9 30.4
20:15 1018 30.06 847 25.01 16.4 61.6 31 -0.5 31.1
20:20 1018 30.06 847 25.01 16.3 61.3 32 -0.3 31.4
20:25 1018 30.06 847 25.01 16.1 61.1 33 -0.1 31.8
20:30 1018 30.06 847 25.01 15.9 60.7 34 0.3 32.5
20:35 1018 30.06 847 25.01 15.7 60.3 34 -0.1 31.9
20:40 1018 30.06 847 25.01 15.5 59.9 34 -0.3 31.4
20:45 1018 30.06 847 25.01 15.2 59.3 35 -0.2 31.6
20:50 1018 30.06 848 25.04 15.1 59.1 35 -0.3 31.5
20:55 1018 30.06 848 25.04 15 59 34 -0.5 31.1
21:00 1018 30.06 848 25.04 15 59.1 34 -0.7 30.7
21:05 1019 30.09 848 25.04 14.8 58.7 35 -0.4 31.3
21:10 1019 30.09 848 25.04 14.7 58.5 35 -0.5 31.1
21:15 1019 30.09 848 25.04 14.5 58.1 35 -0.6 30.9
21:20 1019 30.09 848 25.04 14.5 58 36 -0.4 31.2
21:25 1019 30.09 848 25.04 14.5 58 36 -0.4 31.2
21:30 1019 30.09 848 25.04 14.2 57.6 36 -0.4 31.3
21:35 1019 30.09 848 25.04 14.1 57.4 39 0.4 32.8
21:40 1019 30.09 848 25.04 13.7 56.6 42 1.2 34.2
21:45 1019 30.09 848 25.04 12.4 54.3 48 1.8 35.2
21:50 1019 30.09 848 25.04 11.3 52.4 50 1.2 34.2
21:55 1019 30.09 848 25.04 11.2 52.1 49 0.9 33.6
22:00 1019 30.09 848 25.04 11.5 52.7 48 0.9 33.7
22:05 1019 30.09 848 25.04 11.3 52.3 50 1.2 34.1
22:10 1019 30.09 848 25.04 11.1 51.9 50 1 33.7
22:15 1019 30.09 848 25.04 11 51.9 49 0.8 33.5
22:20 1019 30.09 848 25.04 10.8 51.5 50 0.9 33.6
22:25 1019 30.09 849 25.07 10.8 51.5 50 0.9 33.6
22:30 1019 30.09 849 25.07 10.9 51.6 50 0.8 33.5
22:35 1019 30.09 849 25.07 10.8 51.5 50 1 33.8
22:40 1019 30.09 849 25.07 10.7 51.3 51 1 33.8
22:45 1020 30.12 849 25.07 10.8 51.4 51 1 33.9
22:50 1020 30.12 849 25.07 10.8 51.4 51 1.2 34.2
22:55 1020 30.12 849 25.07 10.7 51.2 52 1.3 34.4
23:00 1020 30.12 849 25.07 10.4 50.7 53 1.3 34.4
23:05 1020 30.12 849 25.07 10.4 50.7 52 1.1 34
23:10 1020 30.12 849 25.07 10.4 50.6 53 1.2 34.1
23:15 1020 30.12 849 25.07 10.3 50.5 54 1.4 34.5
23:20 1020 30.12 849 25.07 10.1 50.2 54 1.3 34.4
23:25 1020 30.12 849 25.07 9.8 49.7 56 1.6 34.8
23:30 1020 30.12 849 25.07 9.6 49.2 57 1.5 34.7
23:35 1020 30.12 849 25.07 9.6 49.3 57 1.4 34.6
23:40 1020 30.12 849 25.07 9.6 49.3 57 1.4 34.6
23:45 1020 30.12 849 25.07 9.4 48.9 57 1.4 34.5
23:50 1020 30.12 849 25.07 9.5 49.1 57 1.5 34.8
23:55 1020 30.12 849 25.07 9.4 48.9 57 1.4 34.6
24:00 1020 30.12 849 25.07 9.3 48.7 58 1.5 34.7